sensor_id;sensor_type;location;lat;lon;timestamp;temperature;humidity
1307;DHT22;646;48.696;9.114;2022-08-19T00:00:42;20.40;99.90
1307;DHT22;646;48.696;9.114;2022-08-19T00:03:08;20.40;99.90
1307;DHT22;646;48.696;9.114;2022-08-19T00:05:33;20.40;99.90
1307;DHT22;646;48.696;9.114;2022-08-19T00:07:59;20.30;99.90
1307;DHT22;646;48.696;9.114;2022-08-19T00:10:25;20.50;99.90
1307;DHT22;646;48.696;9.114;2022-08-19T00:12:51;20.10;99.90
1307;DHT22;646;48.696;9.114;2022-08-19T00:15:19;20.30;99.90
1307;DHT22;646;48.696;9.114;2022-08-19T00:17:46;20.20;99.90
1307;DHT22;646;48.696;9.114;2022-08-19T00:20:16;20.50;99.90
1307;DHT22;646;48.696;9.114;2022-08-19T00:22:44;20.20;99.90
1307;DHT22;646;48.696;9.114;2022-08-19T00:25:10;20.30;99.90
1307;DHT22;646;48.696;9.114;2022-08-19T00:27:36;20.30;99.90
1307;DHT22;646;48.696;9.114;2022-08-19T00:30:03;20.60;99.90
1307;DHT22;646;48.696;9.114;2022-08-19T00:32:29;20.50;99.90
1307;DHT22;646;48.696;9.114;2022-08-19T00:34:55;20.40;99.90
1307;DHT22;646;48.696;9.114;2022-08-19T00:37:22;20.40;99.90
1307;DHT22;646;48.696;9.114;2022-08-19T00:39:49;20.40;99.90
1307;DHT22;646;48.696;9.114;2022-08-19T00:42:16;20.40;99.90
1307;DHT22;646;48.696;9.114;2022-08-19T00:44:42;20.30;99.90
1307;DHT22;646;48.696;9.114;2022-08-19T00:47:08;20.30;99.90
1307;DHT22;646;48.696;9.114;2022-08-19T00:49:40;20.50;99.90
1307;DHT22;646;48.696;9.114;2022-08-19T00:52:13;20.10;99.90
1307;DHT22;646;48.696;9.114;2022-08-19T00:54:40;20.10;99.90
1307;DHT22;646;48.696;9.114;2022-08-19T00:57:09;20.20;99.90
1307;DHT22;646;48.696;9.114;2022-08-19T00:59:38;19.90;99.90
1307;DHT22;646;48.696;9.114;2022-08-19T01:02:05;20.20;99.90
1307;DHT22;646;48.696;9.114;2022-08-19T01:04:31;19.70;99.90
1307;DHT22;646;48.696;9.114;2022-08-19T01:06:57;19.80;99.90
1307;DHT22;646;48.696;9.114;2022-08-19T01:09:23;19.60;99.90
1307;DHT22;646;48.696;9.114;2022-08-19T01:11:50;19.60;99.90
1307;DHT22;646;48.696;9.114;2022-08-19T01:14:15;19.50;99.90
1307;DHT22;646;48.696;9.114;2022-08-19T01:16:43;19.30;99.90
1307;DHT22;646;48.696;9.114;2022-08-19T01:19:29;19.30;99.90
1307;DHT22;646;48.696;9.114;2022-08-19T01:22:06;19.60;99.90
1307;DHT22;646;48.696;9.114;2022-08-19T01:24:33;19.20;99.90
1307;DHT22;646;48.696;9.114;2022-08-19T01:26:59;19.10;99.90
1307;DHT22;646;48.696;9.114;2022-08-19T01:29:24;19.20;99.90
1307;DHT22;646;48.696;9.114;2022-08-19T01:31:50;19.20;99.90
1307;DHT22;646;48.696;9.114;2022-08-19T01:34:18;19.30;99.90
1307;DHT22;646;48.696;9.114;2022-08-19T01:36:45;19.10;99.90
1307;DHT22;646;48.696;9.114;2022-08-19T01:39:15;19.10;99.90
1307;DHT22;646;48.696;9.114;2022-08-19T01:41:42;19.00;99.90
1307;DHT22;646;48.696;9.114;2022-08-19T01:44:09;19.10;99.90
1307;DHT22;646;48.696;9.114;2022-08-19T01:46:35;19.10;99.90
1307;DHT22;646;48.696;9.114;2022-08-19T01:49:01;19.20;99.90
1307;DHT22;646;48.696;9.114;2022-08-19T01:51:27;19.10;99.90
1307;DHT22;646;48.696;9.114;2022-08-19T01:53:53;19.00;99.90
1307;DHT22;646;48.696;9.114;2022-08-19T01:56:19;19.00;99.90
1307;DHT22;646;48.696;9.114;2022-08-19T01:58:52;18.70;99.90
1307;DHT22;646;48.696;9.114;2022-08-19T02:01:18;19.10;99.90
1307;DHT22;646;48.696;9.114;2022-08-19T02:03:44;18.70;99.90
1307;DHT22;646;48.696;9.114;2022-08-19T02:06:11;18.90;99.90
1307;DHT22;646;48.696;9.114;2022-08-19T02:08:38;19.00;99.90
1307;DHT22;646;48.696;9.114;2022-08-19T02:11:05;19.00;99.90
1307;DHT22;646;48.696;9.114;2022-08-19T02:13:31;19.00;99.90
1307;DHT22;646;48.696;9.114;2022-08-19T02:15:57;18.80;99.90
1307;DHT22;646;48.696;9.114;2022-08-19T02:18:23;18.80;99.90
1307;DHT22;646;48.696;9.114;2022-08-19T02:20:48;19.00;99.90
1307;DHT22;646;48.696;9.114;2022-08-19T02:23:15;18.70;99.90
1307;DHT22;646;48.696;9.114;2022-08-19T02:25:43;18.70;99.90
1307;DHT22;646;48.696;9.114;2022-08-19T02:28:09;19.00;99.90
1307;DHT22;646;48.696;9.114;2022-08-19T02:30:35;19.20;99.90
1307;DHT22;646;48.696;9.114;2022-08-19T02:33:00;19.00;99.90
1307;DHT22;646;48.696;9.114;2022-08-19T02:35:26;19.10;99.90
1307;DHT22;646;48.696;9.114;2022-08-19T02:37:52;19.40;99.90
1307;DHT22;646;48.696;9.114;2022-08-19T02:40:36;19.10;99.90
1307;DHT22;646;48.696;9.114;2022-08-19T02:43:06;19.30;99.90
1307;DHT22;646;48.696;9.114;2022-08-19T02:45:37;19.40;99.90
1307;DHT22;646;48.696;9.114;2022-08-19T02:48:03;19.20;99.90
1307;DHT22;646;48.696;9.114;2022-08-19T02:50:30;19.20;99.90
1307;DHT22;646;48.696;9.114;2022-08-19T02:52:56;19.40;99.90
1307;DHT22;646;48.696;9.114;2022-08-19T02:55:21;18.90;99.90
1307;DHT22;646;48.696;9.114;2022-08-19T02:57:47;19.50;99.90
1307;DHT22;646;48.696;9.114;2022-08-19T03:00:13;19.30;99.90
1307;DHT22;646;48.696;9.114;2022-08-19T03:02:40;19.20;99.90
1307;DHT22;646;48.696;9.114;2022-08-19T03:05:07;19.20;99.90
1307;DHT22;646;48.696;9.114;2022-08-19T03:07:33;19.40;99.90
1307;DHT22;646;48.696;9.114;2022-08-19T03:09:58;19.40;99.90
1307;DHT22;646;48.696;9.114;2022-08-19T03:12:24;19.50;99.90
1307;DHT22;646;48.696;9.114;2022-08-19T03:14:49;19.30;99.90
1307;DHT22;646;48.696;9.114;2022-08-19T03:17:16;19.50;99.90
1307;DHT22;646;48.696;9.114;2022-08-19T03:19:41;19.20;99.90
1307;DHT22;646;48.696;9.114;2022-08-19T03:22:08;19.20;99.90
1307;DHT22;646;48.696;9.114;2022-08-19T03:24:34;19.30;99.90
1307;DHT22;646;48.696;9.114;2022-08-19T03:26:59;19.20;99.90
1307;DHT22;646;48.696;9.114;2022-08-19T03:29:29;19.30;99.90
1307;DHT22;646;48.696;9.114;2022-08-19T03:31:56;19.30;99.90
1307;DHT22;646;48.696;9.114;2022-08-19T03:34:25;19.10;99.90
1307;DHT22;646;48.696;9.114;2022-08-19T03:36:55;19.30;99.90
1307;DHT22;646;48.696;9.114;2022-08-19T03:39:23;19.40;99.90
1307;DHT22;646;48.696;9.114;2022-08-19T03:41:50;19.20;99.90
1307;DHT22;646;48.696;9.114;2022-08-19T03:44:19;19.50;99.90
1307;DHT22;646;48.696;9.114;2022-08-19T03:46:56;19.30;99.90
1307;DHT22;646;48.696;9.114;2022-08-19T03:49:24;19.40;99.90
1307;DHT22;646;48.696;9.114;2022-08-19T03:51:50;19.40;99.90
1307;DHT22;646;48.696;9.114;2022-08-19T03:54:18;19.30;99.90
1307;DHT22;646;48.696;9.114;2022-08-19T03:56:46;19.20;99.90
1307;DHT22;646;48.696;9.114;2022-08-19T03:59:15;19.30;99.90
1307;DHT22;646;48.696;9.114;2022-08-19T04:01:41;19.20;99.90
1307;DHT22;646;48.696;9.114;2022-08-19T04:04:06;19.30;99.90
1307;DHT22;646;48.696;9.114;2022-08-19T04:06:34;19.20;99.90
1307;DHT22;646;48.696;9.114;2022-08-19T04:09:03;19.00;99.90
1307;DHT22;646;48.696;9.114;2022-08-19T04:11:41;19.30;99.90
1307;DHT22;646;48.696;9.114;2022-08-19T04:14:12;19.30;99.90
1307;DHT22;646;48.696;9.114;2022-08-19T04:16:39;19.10;99.90
1307;DHT22;646;48.696;9.114;2022-08-19T04:19:06;19.40;99.90
1307;DHT22;646;48.696;9.114;2022-08-19T04:21:31;19.00;99.90
1307;DHT22;646;48.696;9.114;2022-08-19T04:23:57;19.20;99.90
1307;DHT22;646;48.696;9.114;2022-08-19T04:26:27;19.30;99.90
1307;DHT22;646;48.696;9.114;2022-08-19T04:28:53;19.20;99.90
1307;DHT22;646;48.696;9.114;2022-08-19T04:31:25;19.40;99.90
1307;DHT22;646;48.696;9.114;2022-08-19T04:33:56;19.20;99.90
1307;DHT22;646;48.696;9.114;2022-08-19T04:36:26;19.30;99.90
1307;DHT22;646;48.696;9.114;2022-08-19T04:38:56;19.10;99.90
1307;DHT22;646;48.696;9.114;2022-08-19T04:41:23;19.30;99.90
1307;DHT22;646;48.696;9.114;2022-08-19T04:44:07;19.10;99.90
1307;DHT22;646;48.696;9.114;2022-08-19T04:46:33;19.40;99.90
1307;DHT22;646;48.696;9.114;2022-08-19T04:49:01;19.20;99.90
1307;DHT22;646;48.696;9.114;2022-08-19T04:51:27;19.30;99.90
1307;DHT22;646;48.696;9.114;2022-08-19T04:53:53;19.20;99.90
1307;DHT22;646;48.696;9.114;2022-08-19T04:56:20;19.40;99.90
1307;DHT22;646;48.696;9.114;2022-08-19T04:58:48;19.50;99.90
1307;DHT22;646;48.696;9.114;2022-08-19T05:01:21;19.50;99.90
1307;DHT22;646;48.696;9.114;2022-08-19T05:03:47;19.20;99.90
1307;DHT22;646;48.696;9.114;2022-08-19T05:06:14;19.50;99.90
1307;DHT22;646;48.696;9.114;2022-08-19T05:08:42;19.30;99.90
1307;DHT22;646;48.696;9.114;2022-08-19T05:11:12;19.40;99.90
1307;DHT22;646;48.696;9.114;2022-08-19T05:13:38;19.60;99.90
1307;DHT22;646;48.696;9.114;2022-08-19T05:16:04;19.50;99.90
1307;DHT22;646;48.696;9.114;2022-08-19T05:18:30;19.40;99.90
1307;DHT22;646;48.696;9.114;2022-08-19T05:21:16;19.30;99.90
1307;DHT22;646;48.696;9.114;2022-08-19T05:24:01;19.40;99.90
1307;DHT22;646;48.696;9.114;2022-08-19T05:26:27;19.30;99.90
1307;DHT22;646;48.696;9.114;2022-08-19T05:28:53;19.50;99.90
1307;DHT22;646;48.696;9.114;2022-08-19T05:31:19;19.70;99.90
1307;DHT22;646;48.696;9.114;2022-08-19T05:33:45;19.50;99.90
1307;DHT22;646;48.696;9.114;2022-08-19T05:36:11;19.90;99.90
1307;DHT22;646;48.696;9.114;2022-08-19T05:38:37;19.60;99.90
1307;DHT22;646;48.696;9.114;2022-08-19T05:41:13;19.50;99.90
1307;DHT22;646;48.696;9.114;2022-08-19T05:43:39;19.80;99.90
1307;DHT22;646;48.696;9.114;2022-08-19T05:46:06;19.80;99.90
1307;DHT22;646;48.696;9.114;2022-08-19T05:48:33;19.70;99.90
1307;DHT22;646;48.696;9.114;2022-08-19T05:51:06;19.80;99.90
1307;DHT22;646;48.696;9.114;2022-08-19T05:53:34;19.90;99.90
1307;DHT22;646;48.696;9.114;2022-08-19T05:56:14;19.90;99.90
1307;DHT22;646;48.696;9.114;2022-08-19T05:58:42;19.80;99.90
1307;DHT22;646;48.696;9.114;2022-08-19T06:01:16;19.90;99.90
1307;DHT22;646;48.696;9.114;2022-08-19T06:03:42;20.10;99.90
1307;DHT22;646;48.696;9.114;2022-08-19T06:06:09;19.90;99.90
1307;DHT22;646;48.696;9.114;2022-08-19T06:08:36;20.00;99.90
1307;DHT22;646;48.696;9.114;2022-08-19T06:11:23;19.90;99.90
1307;DHT22;646;48.696;9.114;2022-08-19T06:13:51;20.00;99.90
1307;DHT22;646;48.696;9.114;2022-08-19T06:16:21;19.70;99.90
1307;DHT22;646;48.696;9.114;2022-08-19T06:18:55;20.10;99.90
1307;DHT22;646;48.696;9.114;2022-08-19T06:21:24;20.00;99.90
1307;DHT22;646;48.696;9.114;2022-08-19T06:23:51;20.00;99.90
1307;DHT22;646;48.696;9.114;2022-08-19T06:26:18;20.40;99.90
1307;DHT22;646;48.696;9.114;2022-08-19T06:28:46;20.10;99.90
1307;DHT22;646;48.696;9.114;2022-08-19T06:31:24;20.30;99.90
1307;DHT22;646;48.696;9.114;2022-08-19T06:33:50;20.50;99.90
1307;DHT22;646;48.696;9.114;2022-08-19T06:36:24;20.10;99.90
1307;DHT22;646;48.696;9.114;2022-08-19T06:38:57;20.20;99.90
1307;DHT22;646;48.696;9.114;2022-08-19T06:41:24;20.10;99.90
1307;DHT22;646;48.696;9.114;2022-08-19T06:43:51;20.30;99.90
1307;DHT22;646;48.696;9.114;2022-08-19T06:46:17;20.10;99.90
1307;DHT22;646;48.696;9.114;2022-08-19T06:48:44;20.40;99.90
1307;DHT22;646;48.696;9.114;2022-08-19T06:51:09;20.20;99.90
1307;DHT22;646;48.696;9.114;2022-08-19T06:53:35;20.60;99.90
1307;DHT22;646;48.696;9.114;2022-08-19T06:56:01;20.40;99.90
1307;DHT22;646;48.696;9.114;2022-08-19T06:58:30;20.50;99.90
1307;DHT22;646;48.696;9.114;2022-08-19T07:00:58;20.70;99.90
1307;DHT22;646;48.696;9.114;2022-08-19T07:03:28;20.60;99.90
1307;DHT22;646;48.696;9.114;2022-08-19T07:05:54;20.60;99.90
1307;DHT22;646;48.696;9.114;2022-08-19T07:08:19;20.70;99.90
1307;DHT22;646;48.696;9.114;2022-08-19T07:10:45;20.60;99.90
1307;DHT22;646;48.696;9.114;2022-08-19T07:13:11;20.70;99.90
1307;DHT22;646;48.696;9.114;2022-08-19T07:15:36;20.30;99.90
1307;DHT22;646;48.696;9.114;2022-08-19T07:18:02;20.40;99.90
1307;DHT22;646;48.696;9.114;2022-08-19T07:20:28;20.30;99.90
1307;DHT22;646;48.696;9.114;2022-08-19T07:22:54;19.90;99.90
1307;DHT22;646;48.696;9.114;2022-08-19T07:25:19;20.10;99.90
1307;DHT22;646;48.696;9.114;2022-08-19T07:27:48;19.90;99.90
1307;DHT22;646;48.696;9.114;2022-08-19T07:30:14;19.90;99.90
1307;DHT22;646;48.696;9.114;2022-08-19T07:32:40;19.90;99.90
1307;DHT22;646;48.696;9.114;2022-08-19T07:35:06;20.00;99.90
1307;DHT22;646;48.696;9.114;2022-08-19T07:37:32;19.90;99.90
1307;DHT22;646;48.696;9.114;2022-08-19T07:39:59;20.00;99.90
1307;DHT22;646;48.696;9.114;2022-08-19T07:42:25;19.70;99.90
1307;DHT22;646;48.696;9.114;2022-08-19T07:44:51;19.90;99.90
1307;DHT22;646;48.696;9.114;2022-08-19T07:47:17;19.80;99.90
1307;DHT22;646;48.696;9.114;2022-08-19T07:49:43;19.80;99.90
1307;DHT22;646;48.696;9.114;2022-08-19T07:52:09;20.00;99.90
1307;DHT22;646;48.696;9.114;2022-08-19T07:54:37;19.70;99.90
1307;DHT22;646;48.696;9.114;2022-08-19T07:57:04;20.00;99.90
1307;DHT22;646;48.696;9.114;2022-08-19T07:59:30;19.90;99.90
1307;DHT22;646;48.696;9.114;2022-08-19T08:01:56;19.90;99.90
1307;DHT22;646;48.696;9.114;2022-08-19T08:04:22;20.20;99.90
1307;DHT22;646;48.696;9.114;2022-08-19T08:07:07;20.20;99.90
1307;DHT22;646;48.696;9.114;2022-08-19T08:09:52;20.30;99.90
1307;DHT22;646;48.696;9.114;2022-08-19T08:12:24;20.40;99.90
1307;DHT22;646;48.696;9.114;2022-08-19T08:14:56;20.40;99.90
1307;DHT22;646;48.696;9.114;2022-08-19T08:17:25;20.80;99.90
1307;DHT22;646;48.696;9.114;2022-08-19T08:19:51;20.80;99.90
1307;DHT22;646;48.696;9.114;2022-08-19T08:22:19;20.50;99.90
1307;DHT22;646;48.696;9.114;2022-08-19T08:25:17;20.40;99.90
1307;DHT22;646;48.696;9.114;2022-08-19T08:27:44;20.10;99.90
1307;DHT22;646;48.696;9.114;2022-08-19T08:30:19;20.10;99.90
1307;DHT22;646;48.696;9.114;2022-08-19T08:32:45;20.00;99.90
1307;DHT22;646;48.696;9.114;2022-08-19T08:35:14;20.00;99.90
1307;DHT22;646;48.696;9.114;2022-08-19T08:37:40;19.90;99.90
1307;DHT22;646;48.696;9.114;2022-08-19T08:40:13;20.00;99.90
1307;DHT22;646;48.696;9.114;2022-08-19T08:42:50;19.70;99.90
1307;DHT22;646;48.696;9.114;2022-08-19T08:45:18;19.80;99.90
1307;DHT22;646;48.696;9.114;2022-08-19T08:47:47;19.60;99.90
1307;DHT22;646;48.696;9.114;2022-08-19T08:52:44;19.50;99.90
1307;DHT22;646;48.696;9.114;2022-08-19T08:55:20;19.30;99.90
1307;DHT22;646;48.696;9.114;2022-08-19T09:02:55;19.80;99.90
1307;DHT22;646;48.696;9.114;2022-08-19T09:05:23;19.80;99.90
1307;DHT22;646;48.696;9.114;2022-08-19T09:08:13;19.90;99.90
1307;DHT22;646;48.696;9.114;2022-08-19T09:10:52;19.60;99.90
1307;DHT22;646;48.696;9.114;2022-08-19T09:13:33;19.70;99.90
1307;DHT22;646;48.696;9.114;2022-08-19T09:16:06;19.80;99.90
1307;DHT22;646;48.696;9.114;2022-08-19T09:21:06;19.70;99.90
1307;DHT22;646;48.696;9.114;2022-08-19T09:23:34;19.90;99.90
1307;DHT22;646;48.696;9.114;2022-08-19T09:26:00;19.80;99.90
1307;DHT22;646;48.696;9.114;2022-08-19T09:28:25;19.80;99.90
1307;DHT22;646;48.696;9.114;2022-08-19T09:30:51;20.00;99.90
1307;DHT22;646;48.696;9.114;2022-08-19T09:33:17;19.70;99.90
1307;DHT22;646;48.696;9.114;2022-08-19T09:35:42;20.00;99.90
1307;DHT22;646;48.696;9.114;2022-08-19T09:38:08;19.80;99.90
1307;DHT22;646;48.696;9.114;2022-08-19T09:40:33;20.10;99.90
1307;DHT22;646;48.696;9.114;2022-08-19T09:42:59;19.80;99.90
1307;DHT22;646;48.696;9.114;2022-08-19T09:45:28;20.10;99.90
1307;DHT22;646;48.696;9.114;2022-08-19T09:47:54;20.00;99.90
1307;DHT22;646;48.696;9.114;2022-08-19T09:50:19;20.00;99.90
1307;DHT22;646;48.696;9.114;2022-08-19T09:52:46;20.00;99.90
1307;DHT22;646;48.696;9.114;2022-08-19T09:55:11;20.00;99.90
1307;DHT22;646;48.696;9.114;2022-08-19T09:57:37;19.80;99.90
1307;DHT22;646;48.696;9.114;2022-08-19T10:00:05;19.90;99.90
1307;DHT22;646;48.696;9.114;2022-08-19T10:02:31;19.80;99.90
1307;DHT22;646;48.696;9.114;2022-08-19T10:04:56;19.90;99.90
1307;DHT22;646;48.696;9.114;2022-08-19T10:07:41;20.00;99.90
1307;DHT22;646;48.696;9.114;2022-08-19T10:10:07;20.00;99.90
1307;DHT22;646;48.696;9.114;2022-08-19T10:12:33;20.00;99.90
1307;DHT22;646;48.696;9.114;2022-08-19T10:15:00;19.90;99.90
1307;DHT22;646;48.696;9.114;2022-08-19T10:17:26;20.10;99.90
1307;DHT22;646;48.696;9.114;2022-08-19T10:19:51;19.80;99.90
1307;DHT22;646;48.696;9.114;2022-08-19T10:22:18;20.00;99.90
1307;DHT22;646;48.696;9.114;2022-08-19T10:24:45;20.00;99.90
1307;DHT22;646;48.696;9.114;2022-08-19T10:27:10;20.20;99.90
1307;DHT22;646;48.696;9.114;2022-08-19T10:29:38;20.10;99.90
1307;DHT22;646;48.696;9.114;2022-08-19T10:32:06;19.80;99.90
1307;DHT22;646;48.696;9.114;2022-08-19T10:34:34;20.20;99.90
1307;DHT22;646;48.696;9.114;2022-08-19T10:37:02;20.10;99.90
1307;DHT22;646;48.696;9.114;2022-08-19T10:39:35;20.20;99.90
1307;DHT22;646;48.696;9.114;2022-08-19T10:42:05;20.00;99.90
1307;DHT22;646;48.696;9.114;2022-08-19T10:44:32;20.10;99.90
1307;DHT22;646;48.696;9.114;2022-08-19T10:46:58;20.20;99.90
1307;DHT22;646;48.696;9.114;2022-08-19T10:49:24;20.30;99.90
1307;DHT22;646;48.696;9.114;2022-08-19T10:51:49;20.40;99.90
1307;DHT22;646;48.696;9.114;2022-08-19T10:54:33;20.10;99.90
1307;DHT22;646;48.696;9.114;2022-08-19T10:57:17;20.20;99.90
1307;DHT22;646;48.696;9.114;2022-08-19T10:59:43;19.90;99.90
1307;DHT22;646;48.696;9.114;2022-08-19T11:02:10;20.30;99.90
1307;DHT22;646;48.696;9.114;2022-08-19T11:04:37;20.20;99.90
1307;DHT22;646;48.696;9.114;2022-08-19T11:07:04;19.90;99.90
1307;DHT22;646;48.696;9.114;2022-08-19T11:09:30;20.00;99.90
1307;DHT22;646;48.696;9.114;2022-08-19T11:11:56;20.20;99.90
1307;DHT22;646;48.696;9.114;2022-08-19T11:14:23;20.40;99.90
1307;DHT22;646;48.696;9.114;2022-08-19T11:16:51;20.20;99.90
1307;DHT22;646;48.696;9.114;2022-08-19T11:19:18;20.50;99.90
1307;DHT22;646;48.696;9.114;2022-08-19T11:21:47;20.50;99.90
1307;DHT22;646;48.696;9.114;2022-08-19T11:24:16;20.40;99.90
1307;DHT22;646;48.696;9.114;2022-08-19T11:26:43;20.20;99.90
1307;DHT22;646;48.696;9.114;2022-08-19T11:29:11;20.60;99.90
1307;DHT22;646;48.696;9.114;2022-08-19T11:31:39;20.40;99.90
1307;DHT22;646;48.696;9.114;2022-08-19T11:34:08;20.40;99.90
1307;DHT22;646;48.696;9.114;2022-08-19T11:36:34;20.60;99.90
1307;DHT22;646;48.696;9.114;2022-08-19T11:39:03;20.40;99.90
1307;DHT22;646;48.696;9.114;2022-08-19T11:41:28;20.40;99.90
1307;DHT22;646;48.696;9.114;2022-08-19T11:43:54;20.60;99.90
1307;DHT22;646;48.696;9.114;2022-08-19T11:46:22;20.60;99.90
1307;DHT22;646;48.696;9.114;2022-08-19T11:48:48;20.40;99.90
1307;DHT22;646;48.696;9.114;2022-08-19T11:51:17;20.80;99.90
1307;DHT22;646;48.696;9.114;2022-08-19T11:53:44;21.00;99.90
1307;DHT22;646;48.696;9.114;2022-08-19T11:56:10;21.00;99.90
1307;DHT22;646;48.696;9.114;2022-08-19T11:58:36;20.70;99.90
1307;DHT22;646;48.696;9.114;2022-08-19T12:01:05;21.10;99.90
1307;DHT22;646;48.696;9.114;2022-08-19T12:03:31;21.30;99.90
1307;DHT22;646;48.696;9.114;2022-08-19T12:05:56;21.40;99.90
1307;DHT22;646;48.696;9.114;2022-08-19T12:08:22;21.60;99.90
1307;DHT22;646;48.696;9.114;2022-08-19T12:10:47;21.90;99.90
1307;DHT22;646;48.696;9.114;2022-08-19T12:13:14;22.00;99.90
1307;DHT22;646;48.696;9.114;2022-08-19T12:15:46;22.60;99.90
1307;DHT22;646;48.696;9.114;2022-08-19T12:18:12;22.90;99.90
1307;DHT22;646;48.696;9.114;2022-08-19T12:20:41;23.20;99.90
1307;DHT22;646;48.696;9.114;2022-08-19T12:23:08;23.50;99.90
1307;DHT22;646;48.696;9.114;2022-08-19T12:25:35;23.50;99.90
1307;DHT22;646;48.696;9.114;2022-08-19T12:28:01;23.60;99.90
1307;DHT22;646;48.696;9.114;2022-08-19T12:30:27;23.40;99.90
1307;DHT22;646;48.696;9.114;2022-08-19T12:32:52;23.70;99.90
1307;DHT22;646;48.696;9.114;2022-08-19T12:35:18;23.40;99.60
1307;DHT22;646;48.696;9.114;2022-08-19T12:37:46;23.40;99.80
1307;DHT22;646;48.696;9.114;2022-08-19T12:40:12;23.50;99.90
1307;DHT22;646;48.696;9.114;2022-08-19T12:42:38;23.40;99.90
1307;DHT22;646;48.696;9.114;2022-08-19T12:45:08;23.30;99.90
1307;DHT22;646;48.696;9.114;2022-08-19T12:47:34;23.20;99.90
1307;DHT22;646;48.696;9.114;2022-08-19T12:50:00;23.00;99.90
1307;DHT22;646;48.696;9.114;2022-08-19T12:52:26;23.20;99.90
1307;DHT22;646;48.696;9.114;2022-08-19T12:54:54;23.00;99.90
1307;DHT22;646;48.696;9.114;2022-08-19T12:57:25;23.00;99.90
1307;DHT22;646;48.696;9.114;2022-08-19T12:59:54;22.80;99.90
1307;DHT22;646;48.696;9.114;2022-08-19T13:02:19;22.80;99.90
1307;DHT22;646;48.696;9.114;2022-08-19T13:04:45;22.50;99.90
1307;DHT22;646;48.696;9.114;2022-08-19T13:07:11;22.50;99.90
1307;DHT22;646;48.696;9.114;2022-08-19T13:09:37;22.70;99.90
1307;DHT22;646;48.696;9.114;2022-08-19T13:12:03;22.50;99.90
1307;DHT22;646;48.696;9.114;2022-08-19T13:14:34;22.50;99.90
1307;DHT22;646;48.696;9.114;2022-08-19T13:16:59;22.20;99.90
1307;DHT22;646;48.696;9.114;2022-08-19T13:19:25;21.70;99.90
1307;DHT22;646;48.696;9.114;2022-08-19T13:21:51;21.80;99.90
1307;DHT22;646;48.696;9.114;2022-08-19T13:24:18;21.60;99.90
1307;DHT22;646;48.696;9.114;2022-08-19T13:26:44;21.40;99.90
1307;DHT22;646;48.696;9.114;2022-08-19T13:29:09;21.30;99.90
1307;DHT22;646;48.696;9.114;2022-08-19T13:31:53;21.50;99.90
1307;DHT22;646;48.696;9.114;2022-08-19T13:34:37;21.50;99.90
1307;DHT22;646;48.696;9.114;2022-08-19T13:37:04;22.00;99.90
1307;DHT22;646;48.696;9.114;2022-08-19T13:39:34;21.80;99.90
1307;DHT22;646;48.696;9.114;2022-08-19T13:42:00;21.80;99.90
1307;DHT22;646;48.696;9.114;2022-08-19T13:44:27;21.70;99.90
1307;DHT22;646;48.696;9.114;2022-08-19T13:47:05;21.90;99.90
1307;DHT22;646;48.696;9.114;2022-08-19T13:49:32;22.10;99.90
1307;DHT22;646;48.696;9.114;2022-08-19T13:51:57;21.90;99.90
1307;DHT22;646;48.696;9.114;2022-08-19T13:54:23;21.70;99.90
1307;DHT22;646;48.696;9.114;2022-08-19T13:56:48;22.10;99.90
1307;DHT22;646;48.696;9.114;2022-08-19T13:59:14;22.00;99.90
1307;DHT22;646;48.696;9.114;2022-08-19T14:01:40;22.10;99.90
1307;DHT22;646;48.696;9.114;2022-08-19T14:04:07;22.10;99.90
1307;DHT22;646;48.696;9.114;2022-08-19T14:06:33;22.00;99.90
1307;DHT22;646;48.696;9.114;2022-08-19T14:08:59;22.00;99.90
1307;DHT22;646;48.696;9.114;2022-08-19T14:11:25;21.80;99.90
1307;DHT22;646;48.696;9.114;2022-08-19T14:13:50;22.00;99.90
1307;DHT22;646;48.696;9.114;2022-08-19T14:16:16;21.60;99.90
1307;DHT22;646;48.696;9.114;2022-08-19T14:18:42;21.60;99.90
1307;DHT22;646;48.696;9.114;2022-08-19T14:21:17;21.70;99.90
1307;DHT22;646;48.696;9.114;2022-08-19T14:23:45;21.50;99.90
1307;DHT22;646;48.696;9.114;2022-08-19T14:26:14;21.50;99.90
1307;DHT22;646;48.696;9.114;2022-08-19T14:28:41;21.60;99.90
1307;DHT22;646;48.696;9.114;2022-08-19T14:31:08;21.50;99.90
1307;DHT22;646;48.696;9.114;2022-08-19T14:33:34;21.60;99.90
1307;DHT22;646;48.696;9.114;2022-08-19T14:35:59;21.60;99.90
1307;DHT22;646;48.696;9.114;2022-08-19T14:38:26;21.60;99.90
1307;DHT22;646;48.696;9.114;2022-08-19T14:40:52;21.50;99.90
1307;DHT22;646;48.696;9.114;2022-08-19T14:43:17;21.50;99.90
1307;DHT22;646;48.696;9.114;2022-08-19T14:45:43;21.50;99.90
1307;DHT22;646;48.696;9.114;2022-08-19T14:48:09;21.80;99.90
1307;DHT22;646;48.696;9.114;2022-08-19T14:50:35;22.10;99.90
1307;DHT22;646;48.696;9.114;2022-08-19T14:53:07;22.40;99.90
1307;DHT22;646;48.696;9.114;2022-08-19T14:55:34;22.40;99.90
1307;DHT22;646;48.696;9.114;2022-08-19T14:57:59;22.70;99.90
1307;DHT22;646;48.696;9.114;2022-08-19T15:00:25;23.50;99.90
1307;DHT22;646;48.696;9.114;2022-08-19T15:02:52;24.10;99.90
1307;DHT22;646;48.696;9.114;2022-08-19T15:05:19;24.30;99.90
1307;DHT22;646;48.696;9.114;2022-08-19T15:07:45;24.30;99.90
1307;DHT22;646;48.696;9.114;2022-08-19T15:10:12;23.90;99.90
1307;DHT22;646;48.696;9.114;2022-08-19T15:12:39;24.00;99.90
1307;DHT22;646;48.696;9.114;2022-08-19T15:15:13;23.80;99.90
1307;DHT22;646;48.696;9.114;2022-08-19T15:17:40;24.00;99.90
1307;DHT22;646;48.696;9.114;2022-08-19T15:20:07;23.70;99.90
1307;DHT22;646;48.696;9.114;2022-08-19T15:22:33;23.40;99.90
1307;DHT22;646;48.696;9.114;2022-08-19T15:25:00;23.80;99.90
1307;DHT22;646;48.696;9.114;2022-08-19T15:27:26;23.50;99.90
1307;DHT22;646;48.696;9.114;2022-08-19T15:29:52;23.60;99.90
1307;DHT22;646;48.696;9.114;2022-08-19T15:32:17;23.70;99.90
1307;DHT22;646;48.696;9.114;2022-08-19T15:34:44;23.90;99.90
1307;DHT22;646;48.696;9.114;2022-08-19T15:37:09;24.40;99.90
1307;DHT22;646;48.696;9.114;2022-08-19T15:39:35;24.20;99.90
1307;DHT22;646;48.696;9.114;2022-08-19T15:42:01;24.50;99.90
1307;DHT22;646;48.696;9.114;2022-08-19T15:44:28;24.30;99.90
1307;DHT22;646;48.696;9.114;2022-08-19T15:46:54;24.70;99.90
1307;DHT22;646;48.696;9.114;2022-08-19T15:49:19;24.80;99.90
1307;DHT22;646;48.696;9.114;2022-08-19T15:51:47;24.70;99.90
1307;DHT22;646;48.696;9.114;2022-08-19T15:54:16;24.80;99.90
1307;DHT22;646;48.696;9.114;2022-08-19T15:56:42;24.90;99.90
1307;DHT22;646;48.696;9.114;2022-08-19T15:59:26;24.80;99.90
1307;DHT22;646;48.696;9.114;2022-08-19T16:02:11;24.70;99.60
1307;DHT22;646;48.696;9.114;2022-08-19T16:04:55;24.60;98.90
1307;DHT22;646;48.696;9.114;2022-08-19T16:07:39;24.50;98.30
1307;DHT22;646;48.696;9.114;2022-08-19T16:10:05;24.50;98.60
1307;DHT22;646;48.696;9.114;2022-08-19T16:12:31;24.30;98.20
1307;DHT22;646;48.696;9.114;2022-08-19T16:14:57;24.10;98.20
1307;DHT22;646;48.696;9.114;2022-08-19T16:17:23;24.20;98.10
1307;DHT22;646;48.696;9.114;2022-08-19T16:19:49;24.50;99.00
1307;DHT22;646;48.696;9.114;2022-08-19T16:22:15;24.40;98.90
1307;DHT22;646;48.696;9.114;2022-08-19T16:24:41;24.50;99.30
1307;DHT22;646;48.696;9.114;2022-08-19T16:27:07;24.80;97.60
1307;DHT22;646;48.696;9.114;2022-08-19T16:29:33;24.60;97.60
1307;DHT22;646;48.696;9.114;2022-08-19T16:32:09;24.40;97.40